createdAt,value
2019-05-05T00:02:28.042Z,4.45
2019-05-05T00:04:59.440Z,4.58
2019-05-05T00:07:30.329Z,3.85
2019-05-05T00:10:00.268Z,6.28
2019-05-05T00:12:36.302Z,4.07
2019-05-05T00:15:16.967Z,3.40
2019-05-05T00:17:46.963Z,2.73
2019-05-05T00:20:16.781Z,4.53
2019-05-05T00:22:46.661Z,5.87
2019-05-05T00:25:16.505Z,4.03
2019-05-05T00:27:46.439Z,4.10
2019-05-05T00:30:16.371Z,4.65
2019-05-05T00:32:46.250Z,3.87
2019-05-05T00:35:16.067Z,3.90
2019-05-05T00:37:45.946Z,5.00
2019-05-05T00:40:16.359Z,2.70
2019-05-05T00:42:46.293Z,2.10
2019-05-05T00:45:16.121Z,3.57
2019-05-05T00:47:54.433Z,3.95
2019-05-05T00:50:25.212Z,4.17
2019-05-05T00:52:55.360Z,2.70
2019-05-05T00:55:25.938Z,3.70
2019-05-05T00:58:00.525Z,5.73
2019-05-05T01:00:41.222Z,2.80
2019-05-05T01:03:11.944Z,6.37
2019-05-05T01:05:55.789Z,4.45
2019-05-05T01:11:18.965Z,5.33
2019-05-05T01:13:49.502Z,7.03
2019-05-05T01:16:19.362Z,5.20
2019-05-05T01:18:50.413Z,4.12
2019-05-05T01:21:20.232Z,5.45
2019-05-05T01:23:50.033Z,5.17
2019-05-05T01:26:19.928Z,3.87
2019-05-05T01:28:49.749Z,2.83
2019-05-05T01:31:20.578Z,5.83
2019-05-05T01:33:58.793Z,4.17
2019-05-05T01:36:30.205Z,6.07
2019-05-05T01:39:17.984Z,5.42
2019-05-05T01:41:49.436Z,7.53
2019-05-05T01:44:19.263Z,4.17
2019-05-05T01:46:49.142Z,6.17
2019-05-05T01:49:19.012Z,5.90
2019-05-05T01:51:48.913Z,6.50
2019-05-05T01:54:18.734Z,4.22
2019-05-05T01:56:52.271Z,4.37
2019-05-05T01:59:26.626Z,5.22
2019-05-05T02:01:56.481Z,5.33
2019-05-05T02:04:27.447Z,6.67
2019-05-05T02:06:57.350Z,6.25
2019-05-05T02:09:35.418Z,6.10
2019-05-05T02:12:05.480Z,5.60
2019-05-05T02:14:36.456Z,7.77
2019-05-05T02:17:06.281Z,5.72
2019-05-05T02:19:36.271Z,5.50
2019-05-05T02:22:06.190Z,5.62
2019-05-05T02:24:36.164Z,6.95
2019-05-05T02:27:06.105Z,7.15
2019-05-05T02:29:40.647Z,5.63
2019-05-05T02:32:30.757Z,7.35
2019-05-05T02:35:08.302Z,6.80
2019-05-05T02:37:38.136Z,5.12
2019-05-05T02:40:09.598Z,5.58
2019-05-05T02:42:40.330Z,5.67
2019-05-05T02:45:12.036Z,6.53
2019-05-05T02:47:47.131Z,5.17
2019-05-05T02:50:18.418Z,7.45
2019-05-05T02:52:49.418Z,5.17
2019-05-05T02:55:20.870Z,4.92
2019-05-05T02:58:08.677Z,5.05
2019-05-05T03:00:55.420Z,6.65
2019-05-05T03:03:25.714Z,6.87
2019-05-05T03:05:56.002Z,5.93
2019-05-05T03:08:27.432Z,4.87
2019-05-05T03:10:59.309Z,5.00
2019-05-05T03:13:33.580Z,5.97
2019-05-05T03:16:23.822Z,5.00
2019-05-05T03:18:55.732Z,6.22
2019-05-05T03:21:26.013Z,6.17
2019-05-05T03:23:56.455Z,5.65
2019-05-05T03:26:26.544Z,4.60
2019-05-05T03:29:00.970Z,5.92
2019-05-05T03:31:30.930Z,5.35
2019-05-05T03:34:01.068Z,4.85
2019-05-05T03:36:30.987Z,4.62
2019-05-05T03:39:05.164Z,5.20
2019-05-05T03:41:40.112Z,4.92
2019-05-05T03:44:17.751Z,5.90
2019-05-05T03:46:47.767Z,6.65
2019-05-05T03:49:17.796Z,7.90
2019-05-05T03:51:47.806Z,6.80
2019-05-05T03:54:18.388Z,7.67
2019-05-05T03:56:49.993Z,8.45
2019-05-05T03:59:19.972Z,6.60
2019-05-05T04:01:54.665Z,10.53
2019-05-05T04:04:29.080Z,8.35
2019-05-05T04:07:00.417Z,7.22
2019-05-05T04:09:34.568Z,8.03
2019-05-05T04:12:04.714Z,7.63
2019-05-05T04:14:34.897Z,6.80
2019-05-05T04:17:15.761Z,6.90
2019-05-05T04:19:47.200Z,6.83
2019-05-05T04:22:20.156Z,5.80
2019-05-05T04:24:50.071Z,9.90
2019-05-05T04:27:19.929Z,5.67
2019-05-05T04:29:49.879Z,8.25
2019-05-05T04:32:19.692Z,6.12
2019-05-05T04:34:49.572Z,7.85
2019-05-05T04:37:19.533Z,7.97
2019-05-05T04:40:07.381Z,6.37
2019-05-05T04:42:37.359Z,8.33
2019-05-05T04:45:07.837Z,9.03
2019-05-05T04:47:48.270Z,6.03
2019-05-05T04:50:44.093Z,8.27
2019-05-05T04:53:13.529Z,6.62
2019-05-05T04:55:44.291Z,5.67
2019-05-05T04:58:14.375Z,6.08
2019-05-05T05:00:44.289Z,6.85
2019-05-05T05:03:32.065Z,7.78
2019-05-05T05:06:05.031Z,8.78
2019-05-05T05:08:34.986Z,9.40
2019-05-05T05:11:04.843Z,7.72
2019-05-05T05:13:34.887Z,6.92
2019-05-05T05:16:05.904Z,8.70
2019-05-05T05:18:35.761Z,5.70
2019-05-05T05:21:05.626Z,7.87
2019-05-05T05:23:35.439Z,8.25
2019-05-05T05:26:05.411Z,8.65
2019-05-05T05:28:35.281Z,7.47
2019-05-05T05:31:05.132Z,7.70
2019-05-05T05:33:34.971Z,8.33
2019-05-05T05:36:04.830Z,8.67
2019-05-05T05:38:43.785Z,8.28
2019-05-05T05:41:16.331Z,6.60
2019-05-05T05:43:57.100Z,7.73
2019-05-05T05:46:34.633Z,8.90
2019-05-05T05:49:10.963Z,7.05
2019-05-05T05:51:40.861Z,7.22
2019-05-05T05:54:10.685Z,8.55
2019-05-05T05:56:40.518Z,7.60
2019-05-05T05:59:16.414Z,7.22
2019-05-05T06:01:46.275Z,8.30
2019-05-05T06:04:16.141Z,8.63
2019-05-05T06:06:45.967Z,7.90
2019-05-05T06:09:23.765Z,8.68
2019-05-05T06:11:54.185Z,13.72
2019-05-05T06:14:26.888Z,8.00
2019-05-05T06:16:56.716Z,8.95
2019-05-05T06:19:26.623Z,9.83
2019-05-05T06:21:56.496Z,11.12
2019-05-05T06:24:26.311Z,7.05
2019-05-05T06:26:56.099Z,10.30
2019-05-05T06:29:26.002Z,14.60
2019-05-05T06:31:55.863Z,10.55
2019-05-05T06:34:25.813Z,14.00
2019-05-05T06:36:55.613Z,14.98
2019-05-05T06:39:25.533Z,13.87
2019-05-05T06:41:56.999Z,14.68
2019-05-05T06:44:34.434Z,14.25
2019-05-05T06:47:08.997Z,10.47
2019-05-05T06:49:48.972Z,14.50
2019-05-05T06:52:18.973Z,13.40
2019-05-05T06:54:48.792Z,14.33
2019-05-05T06:57:18.600Z,15.60
2019-05-05T06:59:48.477Z,13.43
2019-05-05T07:02:20.619Z,10.93
2019-05-05T07:04:56.636Z,11.95
2019-05-05T07:07:26.654Z,12.95
2019-05-05T07:10:14.079Z,12.73
2019-05-05T07:12:45.228Z,12.00
2019-05-05T07:15:16.329Z,14.90
2019-05-05T07:17:56.652Z,16.45
2019-05-05T07:21:27.189Z,13.20
2019-05-05T07:23:27.041Z,14.07
2019-05-05T07:25:57.009Z,13.95
2019-05-05T07:28:26.891Z,12.20
2019-05-05T07:30:56.857Z,13.00
2019-05-05T07:33:28.597Z,12.15
2019-05-05T07:36:20.113Z,14.35
2019-05-05T07:38:54.844Z,16.48
2019-05-05T07:41:28.514Z,15.15
2019-05-05T07:44:01.613Z,13.58
2019-05-05T07:46:31.537Z,12.45
2019-05-05T07:49:05.587Z,16.43
2019-05-05T07:51:35.437Z,12.78
2019-05-05T07:54:05.354Z,14.55
2019-05-05T07:56:37.869Z,11.40
2019-05-05T07:59:08.324Z,13.62
2019-05-05T08:01:43.073Z,17.20
2019-05-05T08:04:17.484Z,11.63
2019-05-05T08:07:14.709Z,12.03
2019-05-05T08:09:39.757Z,13.03
2019-05-05T08:12:15.806Z,12.35
2019-05-05T08:14:45.732Z,11.63
2019-05-05T08:17:25.451Z,9.98
